sensor_id;sensor_type;location;lat;lon;timestamp;pressure;altitude;pressure_sealevel;temperature;humidity
77171;BME280;66144;50.020;14.422;2023-03-16T00:02:11;99392.81;;;0.84;77.95
77171;BME280;66144;50.020;14.422;2023-03-16T00:04:37;99388.53;;;0.76;78.19
77171;BME280;66144;50.020;14.422;2023-03-16T00:07:04;99393.63;;;0.84;78.63
77171;BME280;66144;50.020;14.422;2023-03-16T00:09:30;99390.25;;;0.84;77.97
77171;BME280;66144;50.020;14.422;2023-03-16T00:11:56;99388.66;;;0.83;78.44
77171;BME280;66144;50.020;14.422;2023-03-16T00:14:23;99389.78;;;0.80;77.55
77171;BME280;66144;50.020;14.422;2023-03-16T00:16:48;99393.94;;;0.81;78.31
77171;BME280;66144;50.020;14.422;2023-03-16T00:19:14;99399.91;;;0.82;77.84
77171;BME280;66144;50.020;14.422;2023-03-16T00:21:39;99399.31;;;0.72;78.30
77171;BME280;66144;50.020;14.422;2023-03-16T00:24:05;99389.50;;;0.75;77.54
77171;BME280;66144;50.020;14.422;2023-03-16T00:26:30;99394.97;;;0.72;77.78
77171;BME280;66144;50.020;14.422;2023-03-16T00:28:56;99391.44;;;0.73;77.96
77171;BME280;66144;50.020;14.422;2023-03-16T00:31:21;99399.94;;;0.74;78.27
77171;BME280;66144;50.020;14.422;2023-03-16T00:33:49;99390.16;;;0.69;77.52
77171;BME280;66144;50.020;14.422;2023-03-16T00:36:15;99393.69;;;0.68;77.69
77171;BME280;66144;50.020;14.422;2023-03-16T00:38:41;99405.25;;;0.72;78.15
77171;BME280;66144;50.020;14.422;2023-03-16T00:41:12;99398.84;;;0.68;77.88
77171;BME280;66144;50.020;14.422;2023-03-16T00:43:41;99396.75;;;0.72;77.44
77171;BME280;66144;50.020;14.422;2023-03-16T00:46:12;99404.94;;;0.67;77.86
77171;BME280;66144;50.020;14.422;2023-03-16T00:48:39;99406.06;;;0.64;77.81
77171;BME280;66144;50.020;14.422;2023-03-16T00:51:08;99412.50;;;0.60;77.64
77171;BME280;66144;50.020;14.422;2023-03-16T00:53:37;99407.03;;;0.63;77.71
77171;BME280;66144;50.020;14.422;2023-03-16T00:56:04;99403.03;;;0.61;77.79
77171;BME280;66144;50.020;14.422;2023-03-16T00:58:33;99407.19;;;0.62;78.41
77171;BME280;66144;50.020;14.422;2023-03-16T01:01:04;99416.50;;;0.63;78.64
77171;BME280;66144;50.020;14.422;2023-03-16T01:03:31;99416.03;;;0.59;77.84
77171;BME280;66144;50.020;14.422;2023-03-16T01:05:56;99414.91;;;0.62;78.30
77171;BME280;66144;50.020;14.422;2023-03-16T01:08:27;99408.63;;;0.64;77.67
77171;BME280;66144;50.020;14.422;2023-03-16T01:10:53;99420.84;;;0.62;77.23
77171;BME280;66144;50.020;14.422;2023-03-16T01:13:20;99418.91;;;0.64;78.59
77171;BME280;66144;50.020;14.422;2023-03-16T01:15:45;99424.06;;;0.64;78.29
77171;BME280;66144;50.020;14.422;2023-03-16T01:18:12;99421.53;;;0.56;78.03
77171;BME280;66144;50.020;14.422;2023-03-16T01:20:38;99422.47;;;0.63;78.36
77171;BME280;66144;50.020;14.422;2023-03-16T01:23:04;99421.03;;;0.61;78.45
77171;BME280;66144;50.020;14.422;2023-03-16T01:25:29;99425.88;;;0.56;78.09
77171;BME280;66144;50.020;14.422;2023-03-16T01:27:56;99435.63;;;0.60;78.45
77171;BME280;66144;50.020;14.422;2023-03-16T01:30:22;99435.00;;;0.58;78.06
77171;BME280;66144;50.020;14.422;2023-03-16T01:32:48;99435.34;;;0.55;77.71
77171;BME280;66144;50.020;14.422;2023-03-16T01:35:13;99438.09;;;0.54;77.32
77171;BME280;66144;50.020;14.422;2023-03-16T01:37:38;99438.88;;;0.54;77.92
77171;BME280;66144;50.020;14.422;2023-03-16T01:40:04;99441.44;;;0.54;78.10
77171;BME280;66144;50.020;14.422;2023-03-16T01:42:43;99442.41;;;0.53;78.00
77171;BME280;66144;50.020;14.422;2023-03-16T01:48:12;99440.19;;;0.50;78.57
77171;BME280;66144;50.020;14.422;2023-03-16T01:50:39;99440.97;;;0.51;77.91
77171;BME280;66144;50.020;14.422;2023-03-16T01:53:06;99444.03;;;0.46;77.91
77171;BME280;66144;50.020;14.422;2023-03-16T01:55:32;99445.81;;;0.46;76.92
77171;BME280;66144;50.020;14.422;2023-03-16T01:57:57;99443.72;;;0.41;77.56
77171;BME280;66144;50.020;14.422;2023-03-16T02:00:23;99444.53;;;0.42;76.82
77171;BME280;66144;50.020;14.422;2023-03-16T02:02:57;99442.09;;;0.40;77.34
77171;BME280;66144;50.020;14.422;2023-03-16T02:05:30;99441.31;;;0.40;77.72
77171;BME280;66144;50.020;14.422;2023-03-16T02:07:57;99444.06;;;0.38;77.06
77171;BME280;66144;50.020;14.422;2023-03-16T02:10:24;99441.97;;;0.33;76.75
77171;BME280;66144;50.020;14.422;2023-03-16T02:12:52;99438.94;;;0.30;77.05
77171;BME280;66144;50.020;14.422;2023-03-16T02:15:18;99439.41;;;0.25;76.04
77171;BME280;66144;50.020;14.422;2023-03-16T02:17:44;99450.50;;;0.26;76.82
77171;BME280;66144;50.020;14.422;2023-03-16T02:22:47;99454.50;;;0.20;76.41
77171;BME280;66144;50.020;14.422;2023-03-16T02:25:16;99449.88;;;0.16;76.75
77171;BME280;66144;50.020;14.422;2023-03-16T02:30:17;99459.19;;;0.17;76.75
77171;BME280;66144;50.020;14.422;2023-03-16T02:32:45;99461.28;;;0.13;76.81
77171;BME280;66144;50.020;14.422;2023-03-16T02:35:11;99462.38;;;0.11;76.52
77171;BME280;66144;50.020;14.422;2023-03-16T02:37:37;99453.72;;;0.04;76.11
77171;BME280;66144;50.020;14.422;2023-03-16T02:40:20;99462.25;;;-0.04;77.46
77171;BME280;66144;50.020;14.422;2023-03-16T02:42:59;99459.34;;;-0.01;77.33
77171;BME280;66144;50.020;14.422;2023-03-16T02:45:30;99460.16;;;-0.01;77.24
77171;BME280;66144;50.020;14.422;2023-03-16T02:48:01;99465.63;;;-0.04;76.75
77171;BME280;66144;50.020;14.422;2023-03-16T02:50:28;99463.53;;;-0.08;76.85
77171;BME280;66144;50.020;14.422;2023-03-16T02:52:53;99459.50;;;-0.03;76.85
77171;BME280;66144;50.020;14.422;2023-03-16T02:55:19;99469.78;;;-0.03;77.03
77171;BME280;66144;50.020;14.422;2023-03-16T02:57:46;99460.78;;;-0.07;76.97
77171;BME280;66144;50.020;14.422;2023-03-16T03:00:12;99471.06;;;-0.07;76.72
77171;BME280;66144;50.020;14.422;2023-03-16T03:02:42;99469.78;;;-0.11;77.58
77171;BME280;66144;50.020;14.422;2023-03-16T03:05:07;99472.03;;;-0.08;76.79
77171;BME280;66144;50.020;14.422;2023-03-16T03:07:32;99477.31;;;-0.09;76.88
77171;BME280;66144;50.020;14.422;2023-03-16T03:09:58;99471.69;;;-0.13;77.89
77171;BME280;66144;50.020;14.422;2023-03-16T03:12:23;99474.25;;;-0.13;76.88
77171;BME280;66144;50.020;14.422;2023-03-16T03:14:49;99475.41;;;-0.07;76.93
77171;BME280;66144;50.020;14.422;2023-03-16T03:17:14;99478.44;;;-0.12;77.51
77171;BME280;66144;50.020;14.422;2023-03-16T03:19:40;99478.91;;;-0.16;76.55
77171;BME280;66144;50.020;14.422;2023-03-16T03:22:06;99473.94;;;-0.10;76.54
77171;BME280;66144;50.020;14.422;2023-03-16T03:24:32;99478.44;;;-0.12;76.18
77171;BME280;66144;50.020;14.422;2023-03-16T03:26:58;99473.63;;;-0.15;76.97
77171;BME280;66144;50.020;14.422;2023-03-16T03:29:31;99483.09;;;-0.23;76.53
77171;BME280;66144;50.020;14.422;2023-03-16T03:32:02;99487.72;;;-0.19;76.24
77171;BME280;66144;50.020;14.422;2023-03-16T03:34:29;99498.97;;;-0.20;76.14
77171;BME280;66144;50.020;14.422;2023-03-16T03:36:55;99489.97;;;-0.24;76.26
77171;BME280;66144;50.020;14.422;2023-03-16T03:39:21;99493.81;;;-0.28;75.90
77171;BME280;66144;50.020;14.422;2023-03-16T03:41:46;99497.66;;;-0.32;76.26
77171;BME280;66144;50.020;14.422;2023-03-16T03:44:11;99494.75;;;-0.37;75.96
77171;BME280;66144;50.020;14.422;2023-03-16T03:46:37;99494.94;;;-0.30;76.58
77171;BME280;66144;50.020;14.422;2023-03-16T03:49:02;99501.84;;;-0.39;76.54
77171;BME280;66144;50.020;14.422;2023-03-16T03:51:30;99495.09;;;-0.40;77.07
77171;BME280;66144;50.020;14.422;2023-03-16T03:53:55;99497.81;;;-0.42;76.40
77171;BME280;66144;50.020;14.422;2023-03-16T03:56:21;99499.09;;;-0.46;76.32
77171;BME280;66144;50.020;14.422;2023-03-16T03:58:46;99502.44;;;-0.45;76.14
77171;BME280;66144;50.020;14.422;2023-03-16T04:01:12;99504.88;;;-0.44;76.48
77171;BME280;66144;50.020;14.422;2023-03-16T04:03:37;99504.22;;;-0.46;75.85
77171;BME280;66144;50.020;14.422;2023-03-16T04:06:02;99507.88;;;-0.48;76.09
77171;BME280;66144;50.020;14.422;2023-03-16T04:08:28;99503.06;;;-0.51;75.63
77171;BME280;66144;50.020;14.422;2023-03-16T04:10:54;99507.56;;;-0.53;76.30
77171;BME280;66144;50.020;14.422;2023-03-16T04:13:19;99502.91;;;-0.58;76.38
77171;BME280;66144;50.020;14.422;2023-03-16T04:15:44;99513.00;;;-0.56;76.37
77171;BME280;66144;50.020;14.422;2023-03-16T04:18:11;99510.41;;;-0.56;76.44
77171;BME280;66144;50.020;14.422;2023-03-16T04:20:37;99513.94;;;-0.65;75.93
77171;BME280;66144;50.020;14.422;2023-03-16T04:23:02;99510.09;;;-0.61;75.51
77171;BME280;66144;50.020;14.422;2023-03-16T04:25:29;99513.16;;;-0.58;75.82
77171;BME280;66144;50.020;14.422;2023-03-16T04:27:55;99519.41;;;-0.60;75.78
77171;BME280;66144;50.020;14.422;2023-03-16T04:30:21;99522.13;;;-0.62;75.54
77171;BME280;66144;50.020;14.422;2023-03-16T04:32:49;99529.03;;;-0.62;75.00
77171;BME280;66144;50.020;14.422;2023-03-16T04:35:16;99521.94;;;-0.68;75.72
77171;BME280;66144;50.020;14.422;2023-03-16T04:37:42;99526.75;;;-0.65;76.05
77171;BME280;66144;50.020;14.422;2023-03-16T04:40:08;99521.94;;;-0.68;75.47
77171;BME280;66144;50.020;14.422;2023-03-16T04:42:40;99523.84;;;-0.71;75.87
77171;BME280;66144;50.020;14.422;2023-03-16T04:45:05;99532.50;;;-0.72;75.85
77171;BME280;66144;50.020;14.422;2023-03-16T04:47:33;99536.31;;;-0.76;76.11
77171;BME280;66144;50.020;14.422;2023-03-16T04:50:00;99533.13;;;-0.78;76.34
77171;BME280;66144;50.020;14.422;2023-03-16T04:52:28;99533.13;;;-0.78;76.44
77171;BME280;66144;50.020;14.422;2023-03-16T04:54:54;99539.69;;;-0.75;76.31
77171;BME280;66144;50.020;14.422;2023-03-16T04:57:19;99530.09;;;-0.73;76.15
77171;BME280;66144;50.020;14.422;2023-03-16T04:59:45;99540.50;;;-0.75;75.93
77171;BME280;66144;50.020;14.422;2023-03-16T05:02:10;99531.38;;;-0.77;76.47
77171;BME280;66144;50.020;14.422;2023-03-16T05:04:36;99540.34;;;-0.73;77.12
77171;BME280;66144;50.020;14.422;2023-03-16T05:07:01;99539.69;;;-0.75;77.19
77171;BME280;66144;50.020;14.422;2023-03-16T05:09:27;99529.59;;;-0.77;77.78
77171;BME280;66144;50.020;14.422;2023-03-16T05:11:52;99534.41;;;-0.74;76.90
77171;BME280;66144;50.020;14.422;2023-03-16T05:14:17;99539.06;;;-0.77;76.65
77171;BME280;66144;50.020;14.422;2023-03-16T05:16:43;99532.97;;;-0.76;76.64
77171;BME280;66144;50.020;14.422;2023-03-16T05:19:08;99531.19;;;-0.76;76.53
77171;BME280;66144;50.020;14.422;2023-03-16T05:21:33;99538.75;;;-0.74;76.63
77171;BME280;66144;50.020;14.422;2023-03-16T05:24:02;99536.03;;;-0.73;76.26
77171;BME280;66144;50.020;14.422;2023-03-16T05:26:28;99543.06;;;-0.75;76.08
77171;BME280;66144;50.020;14.422;2023-03-16T05:28:53;99531.19;;;-0.76;76.20
77171;BME280;66144;50.020;14.422;2023-03-16T05:31:19;99536.81;;;-0.72;76.08
77171;BME280;66144;50.020;14.422;2023-03-16T05:33:44;99536.38;;;-0.67;76.21
77171;BME280;66144;50.020;14.422;2023-03-16T05:36:10;99539.25;;;-0.71;76.59
77171;BME280;66144;50.020;14.422;2023-03-16T05:38:37;99534.75;;;-0.68;76.78
77171;BME280;66144;50.020;14.422;2023-03-16T05:41:03;99532.84;;;-0.66;76.07
77171;BME280;66144;50.020;14.422;2023-03-16T05:43:29;99533.50;;;-0.64;76.02
77171;BME280;66144;50.020;14.422;2023-03-16T05:45:55;99537.81;;;-0.65;76.82
77171;BME280;66144;50.020;14.422;2023-03-16T05:48:21;99532.53;;;-0.63;76.74
77171;BME280;66144;50.020;14.422;2023-03-16T05:50:50;99534.81;;;-0.60;76.33
77171;BME280;66144;50.020;14.422;2023-03-16T05:53:15;99536.03;;;-0.73;76.50
77171;BME280;66144;50.020;14.422;2023-03-16T05:55:41;99534.16;;;-0.62;76.81
77171;BME280;66144;50.020;14.422;2023-03-16T05:58:06;99533.50;;;-0.64;76.29
77171;BME280;66144;50.020;14.422;2023-03-16T06:00:31;99538.03;;;-0.58;76.65
77171;BME280;66144;50.020;14.422;2023-03-16T06:02:57;99546.97;;;-0.62;76.35
77171;BME280;66144;50.020;14.422;2023-03-16T06:05:22;99550.34;;;-0.54;76.35
77171;BME280;66144;50.020;14.422;2023-03-16T06:07:49;99551.94;;;-0.61;76.23
77171;BME280;66144;50.020;14.422;2023-03-16T06:10:14;99546.97;;;-0.54;76.91
77171;BME280;66144;50.020;14.422;2023-03-16T06:12:40;99550.50;;;-0.55;77.03
77171;BME280;66144;50.020;14.422;2023-03-16T06:15:06;99554.22;;;-0.58;76.53
77171;BME280;66144;50.020;14.422;2023-03-16T06:17:33;99556.28;;;-0.53;76.72
77171;BME280;66144;50.020;14.422;2023-03-16T06:19:58;99554.69;;;-0.54;76.67
77171;BME280;66144;50.020;14.422;2023-03-16T06:22:24;99564.34;;;-0.48;76.17
77171;BME280;66144;50.020;14.422;2023-03-16T06:24:50;99559.81;;;-0.54;77.05
77171;BME280;66144;50.020;14.422;2023-03-16T06:27:16;99556.34;;;-0.37;76.45
77171;BME280;66144;50.020;14.422;2023-03-16T06:29:44;99554.59;;;-0.28;76.60
77171;BME280;66144;50.020;14.422;2023-03-16T06:32:09;99562.50;;;-0.22;76.23
77171;BME280;66144;50.020;14.422;2023-03-16T06:34:35;99569.53;;;-0.16;76.04
77171;BME280;66144;50.020;14.422;2023-03-16T06:37:01;99569.25;;;-0.13;76.10
77171;BME280;66144;50.020;14.422;2023-03-16T06:39:26;99571.84;;;-0.05;75.79
77171;BME280;66144;50.020;14.422;2023-03-16T06:41:51;99573.47;;;0.13;74.72
77171;BME280;66144;50.020;14.422;2023-03-16T06:44:17;99576.97;;;0.20;74.21
77171;BME280;66144;50.020;14.422;2023-03-16T06:46:42;99578.94;;;0.34;74.57
77171;BME280;66144;50.020;14.422;2023-03-16T06:49:08;99580.38;;;0.53;73.84
77171;BME280;66144;50.020;14.422;2023-03-16T06:51:33;99582.47;;;0.74;73.74
77171;BME280;66144;50.020;14.422;2023-03-16T06:53:59;99585.66;;;0.92;72.89
77171;BME280;66144;50.020;14.422;2023-03-16T06:56:24;99594.97;;;0.85;72.93
77171;BME280;66144;50.020;14.422;2023-03-16T06:58:52;99602.13;;;1.22;72.73
77171;BME280;66144;50.020;14.422;2023-03-16T07:01:17;99599.47;;;1.46;71.63
77171;BME280;66144;50.020;14.422;2023-03-16T07:03:42;99596.00;;;1.70;71.42
77171;BME280;66144;50.020;14.422;2023-03-16T07:06:08;99601.16;;;1.93;70.29
77171;BME280;66144;50.020;14.422;2023-03-16T07:08:33;99605.44;;;2.08;70.15
77171;BME280;66144;50.020;14.422;2023-03-16T07:10:59;99602.47;;;2.42;68.31
77171;BME280;66144;50.020;14.422;2023-03-16T07:13:25;99594.75;;;2.80;66.83
77171;BME280;66144;50.020;14.422;2023-03-16T07:15:52;99595.56;;;3.10;65.92
77171;BME280;66144;50.020;14.422;2023-03-16T07:18:18;99594.81;;;3.24;65.41
77171;BME280;66144;50.020;14.422;2023-03-16T07:20:44;99595.25;;;3.42;64.09
77171;BME280;66144;50.020;14.422;2023-03-16T07:23:09;99588.31;;;3.79;63.62
77171;BME280;66144;50.020;14.422;2023-03-16T07:25:35;99605.06;;;4.04;62.53
77171;BME280;66144;50.020;14.422;2023-03-16T07:28:01;99593.16;;;4.03;62.07
77171;BME280;66144;50.020;14.422;2023-03-16T07:30:27;99596.34;;;3.69;61.78
77171;BME280;66144;50.020;14.422;2023-03-16T07:32:53;99594.22;;;3.73;62.79
77171;BME280;66144;50.020;14.422;2023-03-16T07:35:18;99603.75;;;4.51;61.28
77171;BME280;66144;50.020;14.422;2023-03-16T07:37:44;99595.13;;;4.93;59.92
77171;BME280;66144;50.020;14.422;2023-03-16T07:40:09;99592.22;;;5.44;58.88
77171;BME280;66144;50.020;14.422;2023-03-16T07:42:35;99592.81;;;5.87;58.10
77171;BME280;66144;50.020;14.422;2023-03-16T07:45:01;99588.91;;;6.17;55.93
77171;BME280;66144;50.020;14.422;2023-03-16T07:47:27;99590.34;;;6.40;54.88
77171;BME280;66144;50.020;14.422;2023-03-16T07:49:54;99584.56;;;6.71;53.70
77171;BME280;66144;50.020;14.422;2023-03-16T07:52:20;99583.69;;;7.16;52.65
77171;BME280;66144;50.020;14.422;2023-03-16T07:54:45;99586.38;;;7.54;51.45
77171;BME280;66144;50.020;14.422;2023-03-16T07:57:10;99586.38;;;7.54;51.36
77171;BME280;66144;50.020;14.422;2023-03-16T07:59:36;99589.34;;;7.65;51.35
77171;BME280;66144;50.020;14.422;2023-03-16T08:02:02;99594.16;;;7.61;52.01
77171;BME280;66144;50.020;14.422;2023-03-16T08:04:30;99592.13;;;8.46;51.89
77171;BME280;66144;50.020;14.422;2023-03-16T08:06:56;99587.16;;;8.31;50.45
77171;BME280;66144;50.020;14.422;2023-03-16T08:09:25;99596.81;;;8.62;50.00
77171;BME280;66144;50.020;14.422;2023-03-16T08:11:50;99595.63;;;8.83;49.86
77171;BME280;66144;50.020;14.422;2023-03-16T08:14:16;99592.72;;;9.16;49.55
77171;BME280;66144;50.020;14.422;2023-03-16T08:16:41;99597.47;;;9.00;48.99
77171;BME280;66144;50.020;14.422;2023-03-16T08:19:06;99601.53;;;9.33;48.67
77171;BME280;66144;50.020;14.422;2023-03-16T08:21:32;99595.31;;;9.52;49.73
77171;BME280;66144;50.020;14.422;2023-03-16T08:23:58;99593.78;;;9.81;47.70
77171;BME280;66144;50.020;14.422;2023-03-16T08:26:23;99592.91;;;9.69;48.50
77171;BME280;66144;50.020;14.422;2023-03-16T08:28:51;99599.09;;;9.56;48.40
77171;BME280;66144;50.020;14.422;2023-03-16T08:31:17;99591.47;;;9.73;49.09
77171;BME280;66144;50.020;14.422;2023-03-16T08:33:45;99593.44;;;9.41;48.53
77171;BME280;66144;50.020;14.422;2023-03-16T08:36:12;99590.81;;;8.61;50.46
77171;BME280;66144;50.020;14.422;2023-03-16T08:38:39;99592.06;;;9.20;50.76
77171;BME280;66144;50.020;14.422;2023-03-16T08:41:05;99604.25;;;8.83;50.80
77171;BME280;66144;50.020;14.422;2023-03-16T08:43:30;99608.31;;;8.48;51.64
77171;BME280;66144;50.020;14.422;2023-03-16T08:45:57;99607.59;;;8.65;53.31
77171;BME280;66144;50.020;14.422;2023-03-16T08:48:23;99606.81;;;8.34;53.16
77171;BME280;66144;50.020;14.422;2023-03-16T08:50:49;99607.81;;;7.94;51.61
77171;BME280;66144;50.020;14.422;2023-03-16T08:53:16;99607.56;;;8.03;53.24
77171;BME280;66144;50.020;14.422;2023-03-16T08:55:41;99612.09;;;7.76;54.20
77171;BME280;66144;50.020;14.422;2023-03-16T08:58:08;99605.13;;;7.70;55.42
77171;BME280;66144;50.020;14.422;2023-03-16T09:00:34;99614.66;;;7.24;55.17
77171;BME280;66144;50.020;14.422;2023-03-16T09:03:00;99608.31;;;7.01;56.47
77171;BME280;66144;50.020;14.422;2023-03-16T09:05:27;99611.13;;;6.73;57.46
77171;BME280;66144;50.020;14.422;2023-03-16T09:07:52;99608.31;;;6.74;56.06
77171;BME280;66144;50.020;14.422;2023-03-16T09:10:18;99611.91;;;6.60;57.33
77171;BME280;66144;50.020;14.422;2023-03-16T09:12:44;99615.50;;;6.33;58.04
77171;BME280;66144;50.020;14.422;2023-03-16T09:15:11;99611.69;;;6.35;59.14
77171;BME280;66144;50.020;14.422;2023-03-16T09:17:37;99616.47;;;6.25;59.18
77171;BME280;66144;50.020;14.422;2023-03-16T09:20:04;99611.66;;;6.15;58.65
77171;BME280;66144;50.020;14.422;2023-03-16T09:22:34;99612.06;;;6.26;57.94
77171;BME280;66144;50.020;14.422;2023-03-16T09:25:02;99609.31;;;6.34;58.78
77171;BME280;66144;50.020;14.422;2023-03-16T09:27:29;99612.47;;;6.36;60.64
77171;BME280;66144;50.020;14.422;2023-03-16T09:29:55;99611.03;;;6.07;60.56
77171;BME280;66144;50.020;14.422;2023-03-16T09:32:20;99618.09;;;6.52;59.88
77171;BME280;66144;50.020;14.422;2023-03-16T09:34:46;99615.53;;;6.72;60.50
77171;BME280;66144;50.020;14.422;2023-03-16T09:37:11;99608.53;;;6.73;60.04
77171;BME280;66144;50.020;14.422;2023-03-16T09:39:37;99617.06;;;7.13;59.19
77171;BME280;66144;50.020;14.422;2023-03-16T09:44:49;99610.00;;;7.97;54.21
77171;BME280;66144;50.020;14.422;2023-03-16T09:47:24;99618.22;;;8.32;54.33
77171;BME280;66144;50.020;14.422;2023-03-16T09:49:51;99613.59;;;8.35;54.59
77171;BME280;66144;50.020;14.422;2023-03-16T09:55:18;99616.41;;;9.32;50.80
77171;BME280;66144;50.020;14.422;2023-03-16T09:57:48;99606.56;;;9.83;49.42
77171;BME280;66144;50.020;14.422;2023-03-16T10:00:16;99614.16;;;10.74;49.21
77171;BME280;66144;50.020;14.422;2023-03-16T10:02:50;99607.88;;;10.98;46.34
77171;BME280;66144;50.020;14.422;2023-03-16T10:05:22;99608.00;;;10.80;44.04
77171;BME280;66144;50.020;14.422;2023-03-16T10:11:09;99608.78;;;11.91;43.93
77171;BME280;66144;50.020;14.422;2023-03-16T10:13:39;99590.06;;;12.61;41.72
77171;BME280;66144;50.020;14.422;2023-03-16T10:16:12;99596.53;;;13.47;42.23
77171;BME280;66144;50.020;14.422;2023-03-16T10:18:46;99587.91;;;14.22;40.13
77171;BME280;66144;50.020;14.422;2023-03-16T10:21:17;99584.94;;;14.40;36.18
77171;BME280;66144;50.020;14.422;2023-03-16T10:23:47;99588.13;;;14.47;35.79
77171;BME280;66144;50.020;14.422;2023-03-16T10:26:22;99582.78;;;14.69;36.95
77171;BME280;66144;50.020;14.422;2023-03-16T10:28:49;99585.44;;;14.74;35.77
77171;BME280;66144;50.020;14.422;2023-03-16T10:31:16;99593.63;;;14.78;35.19
77171;BME280;66144;50.020;14.422;2023-03-16T10:33:44;99584.22;;;15.34;35.84
77171;BME280;66144;50.020;14.422;2023-03-16T10:38:40;99581.91;;;15.53;34.04
77171;BME280;66144;50.020;14.422;2023-03-16T10:43:45;99579.41;;;15.88;33.21
77171;BME280;66144;50.020;14.422;2023-03-16T10:46:12;99581.03;;;16.91;32.20
77171;BME280;66144;50.020;14.422;2023-03-16T10:48:37;99573.66;;;16.88;31.99
77171;BME280;66144;50.020;14.422;2023-03-16T10:51:10;99571.72;;;17.14;32.22
77171;BME280;66144;50.020;14.422;2023-03-16T10:53:40;99566.88;;;17.95;30.45
77171;BME280;66144;50.020;14.422;2023-03-16T10:56:18;99566.56;;;17.53;30.27
77171;BME280;66144;50.020;14.422;2023-03-16T10:58:44;99561.63;;;17.90;30.87
77171;BME280;66144;50.020;14.422;2023-03-16T11:01:20;99569.97;;;17.58;29.33
77171;BME280;66144;50.020;14.422;2023-03-16T11:03:50;99574.72;;;18.79;28.20
77171;BME280;66144;50.020;14.422;2023-03-16T11:06:26;99563.41;;;18.97;28.39
77171;BME280;66144;50.020;14.422;2023-03-16T11:09:02;99556.84;;;19.37;27.60
77171;BME280;66144;50.020;14.422;2023-03-16T11:11:30;99563.69;;;18.33;28.12
77171;BME280;66144;50.020;14.422;2023-03-16T11:13:59;99562.34;;;18.35;28.36
77171;BME280;66144;50.020;14.422;2023-03-16T11:17:09;99558.31;;;17.05;28.82
77171;BME280;66144;50.020;14.422;2023-03-16T11:19:51;99546.72;;;17.60;29.45
77171;BME280;66144;50.020;14.422;2023-03-16T11:22:21;99547.63;;;18.58;30.27
77171;BME280;66144;50.020;14.422;2023-03-16T11:24:56;99543.81;;;18.69;27.91
77171;BME280;66144;50.020;14.422;2023-03-16T11:27:42;99536.03;;;19.25;26.24
77171;BME280;66144;50.020;14.422;2023-03-16T11:32:49;99547.88;;;18.61;25.79
77171;BME280;66144;50.020;14.422;2023-03-16T11:38:07;99534.84;;;19.60;24.89
77171;BME280;66144;50.020;14.422;2023-03-16T11:53:49;99520.84;;;21.53;22.93
77171;BME280;66144;50.020;14.422;2023-03-16T12:06:58;99512.81;;;22.96;21.19
77171;BME280;66144;50.020;14.422;2023-03-16T12:15:34;99503.34;;;24.24;19.34
77171;BME280;66144;50.020;14.422;2023-03-16T12:20:50;99497.81;;;24.21;19.99
77171;BME280;66144;50.020;14.422;2023-03-16T12:25:55;99501.84;;;22.97;19.35
77171;BME280;66144;50.020;14.422;2023-03-16T12:28:26;99499.09;;;22.40;19.47
77171;BME280;66144;50.020;14.422;2023-03-16T12:44:54;99478.88;;;23.45;19.14
77171;BME280;66144;50.020;14.422;2023-03-16T12:47:29;99495.47;;;23.07;19.12
77171;BME280;66144;50.020;14.422;2023-03-16T12:50:09;99487.06;;;24.55;18.37
77171;BME280;66144;50.020;14.422;2023-03-16T12:52:53;99483.22;;;24.65;17.34
77171;BME280;66144;50.020;14.422;2023-03-16T12:57:47;99482.97;;;23.42;18.28
77171;BME280;66144;50.020;14.422;2023-03-16T13:00:14;99491.94;;;23.63;18.78
77171;BME280;66144;50.020;14.422;2023-03-16T13:02:48;99485.72;;;21.43;20.41
77171;BME280;66144;50.020;14.422;2023-03-16T13:05:28;99484.44;;;22.91;19.42
77171;BME280;66144;50.020;14.422;2023-03-16T13:10:31;99473.38;;;21.83;20.87
77171;BME280;66144;50.020;14.422;2023-03-16T13:13:15;99465.88;;;20.44;23.41
77171;BME280;66144;50.020;14.422;2023-03-16T13:15:43;99485.09;;;17.75;24.62
77171;BME280;66144;50.020;14.422;2023-03-16T13:28:32;99477.13;;;13.44;31.87
77171;BME280;66144;50.020;14.422;2023-03-16T13:30:59;99476.63;;;12.82;34.12
77171;BME280;66144;50.020;14.422;2023-03-16T13:33:28;99476.28;;;12.57;32.59
77171;BME280;66144;50.020;14.422;2023-03-16T13:35:56;99470.13;;;12.13;34.58
77171;BME280;66144;50.020;14.422;2023-03-16T13:38:24;99479.50;;;11.63;35.47
77171;BME280;66144;50.020;14.422;2023-03-16T13:40:54;99474.56;;;11.50;37.03
77171;BME280;66144;50.020;14.422;2023-03-16T13:43:25;99466.69;;;11.50;36.56
77171;BME280;66144;50.020;14.422;2023-03-16T13:45:54;99469.19;;;11.17;36.14
77171;BME280;66144;50.020;14.422;2023-03-16T13:48:20;99465.44;;;10.72;36.08
77171;BME280;66144;50.020;14.422;2023-03-16T13:50:53;99467.03;;;10.73;36.41
77171;BME280;66144;50.020;14.422;2023-03-16T13:53:27;99457.28;;;10.57;36.52
77171;BME280;66144;50.020;14.422;2023-03-16T13:55:54;99449.44;;;10.46;36.97
77171;BME280;66144;50.020;14.422;2023-03-16T13:58:35;99450.31;;;9.93;37.81
77171;BME280;66144;50.020;14.422;2023-03-16T14:01:04;99447.16;;;10.14;37.90
77171;BME280;66144;50.020;14.422;2023-03-16T14:03:38;99443.03;;;9.95;38.83
77171;BME280;66144;50.020;14.422;2023-03-16T14:06:06;99446.81;;;9.99;38.90
77171;BME280;66144;50.020;14.422;2023-03-16T14:08:45;99451.69;;;9.65;39.96
77171;BME280;66144;50.020;14.422;2023-03-16T14:11:12;99436.81;;;9.54;40.62
77171;BME280;66144;50.020;14.422;2023-03-16T14:13:37;99437.50;;;9.50;41.86
77171;BME280;66144;50.020;14.422;2023-03-16T14:16:15;99449.53;;;9.62;41.49
77171;BME280;66144;50.020;14.422;2023-03-16T14:18:44;99442.16;;;9.29;41.08
77171;BME280;66144;50.020;14.422;2023-03-16T14:21:36;99438.19;;;9.27;41.60
77171;BME280;66144;50.020;14.422;2023-03-16T14:24:06;99432.50;;;9.18;42.00
77171;BME280;66144;50.020;14.422;2023-03-16T14:26:45;99425.13;;;9.15;41.17
77171;BME280;66144;50.020;14.422;2023-03-16T14:29:22;99421.31;;;9.29;42.64
77171;BME280;66144;50.020;14.422;2023-03-16T14:31:49;99411.91;;;8.98;41.93